Time;durP1;ratioP1;P1;durP2;ratioP2;P2;SDS_P1;SDS_P2;PMS_P1;PMS_P2;Temp;Humidity;BMP_temperature;BMP_pressure;BME280_temperature;BME280_humidity;BME280_pressure;Samples;Min_cycle;Max_cycle;Signal;HPM_P1;HPM_P2
2022/11/26 00:00:17;;;;;;;;;35.50;33.50;;;;;8.88;85.87;102450.44;4974749;28;45442;-72
2022/11/26 00:02:42;;;;;;;;;59.00;47.50;;;;;9.14;85.94;102504.81;4974184;28;45512;-73
2022/11/26 00:05:12;;;;;;;;;58.00;47.00;;;;;9.01;85.89;102488.28;4957216;28;45571;-73
2022/11/26 00:07:38;;;;;;;;;59.00;49.50;;;;;8.77;84.68;102458.69;4974371;28;45404;-73
2022/11/26 00:10:05;;;;;;;;;56.50;47.50;;;;;9.02;86.03;102506.00;4974745;28;45835;-73
2022/11/26 00:12:33;;;;;;;;;57.00;45.25;;;;;9.02;85.74;102509.53;4974482;28;45411;-73
2022/11/26 00:15:16;;;;;;;;;52.50;45.00;;;;;8.97;84.40;102513.22;4974309;28;45367;-73
2022/11/26 00:17:41;;;;;;;;;46.00;40.00;;;;;8.33;85.63;102410.94;4975672;28;45476;-73
2022/11/26 00:20:07;;;;;;;;;53.00;45.25;;;;;8.49;85.35;102439.84;4973108;28;48005;-72
2022/11/26 00:22:43;;;;;;;;;53.50;45.25;;;;;8.60;84.97;102467.09;4973817;28;45515;-73
2022/11/26 00:25:18;;;;;;;;;52.75;43.50;;;;;8.78;85.57;102505.69;4977267;28;45549;-71
2022/11/26 00:27:44;;;;;;;;;56.25;43.50;;;;;8.83;85.58;102510.91;4985418;28;45313;-72
2022/11/26 00:30:22;;;;;;;;;54.75;43.25;;;;;8.86;85.38;102526.78;4993952;28;45339;-72
2022/11/26 00:32:48;;;;;;;;;53.00;44.25;;;;;8.83;85.16;102522.41;4994264;28;45359;-72
2022/11/26 00:35:14;;;;;;;;;52.75;45.00;;;;;8.81;85.45;102528.69;4977675;28;45432;-72
2022/11/26 00:37:55;;;;;;;;;51.75;43.25;;;;;8.83;85.67;102527.75;4988936;28;45503;-72
2022/11/26 00:40:30;;;;;;;;;49.00;41.25;;;;;8.75;85.59;102505.75;4983294;28;45611;-71
2022/11/26 00:42:56;;;;;;;;;53.25;44.25;;;;;8.80;85.09;102517.19;4977641;28;45379;-71
2022/11/26 00:45:25;;;;;;;;;53.25;46.00;;;;;8.85;85.77;102519.72;4977837;28;45527;-72
2022/11/26 00:47:51;;;;;;;;;51.75;44.00;;;;;8.81;85.41;102512.72;4977688;28;45472;-72
2022/11/26 00:50:23;;;;;;;;;60.00;47.00;;;;;8.87;85.74;102518.78;4977219;28;45355;-71
2022/11/26 00:52:52;;;;;;;;;54.75;45.25;;;;;8.65;85.44;102486.50;4977604;28;45392;-72
2022/11/26 00:55:20;;;;;;;;;53.50;44.50;;;;;8.89;85.60;102519.63;4977436;28;45360;-72
2022/11/26 00:57:46;;;;;;;;;58.50;47.50;;;;;8.82;85.10;102519.81;4976256;28;45417;-72
2022/11/26 01:00:17;;;;;;;;;60.00;50.50;;;;;8.75;85.34;102506.63;4977449;28;45265;-72
2022/11/26 01:02:43;;;;;;;;;56.75;46.50;;;;;8.86;85.18;102532.13;4977014;28;45496;-72
2022/11/26 01:05:09;;;;;;;;;47.75;40.50;;;;;8.78;84.75;102526.09;4982300;28;45486;-72
2022/11/26 01:07:35;;;;;;;;;56.00;45.75;;;;;8.69;84.98;102519.19;4979020;28;45588;-72
2022/11/26 01:10:00;;;;;;;;;56.75;43.50;;;;;8.64;84.96;102515.75;4977140;28;45412;-72
2022/11/26 01:12:26;;;;;;;;;52.25;44.00;;;;;8.40;85.30;102476.34;4977086;28;45628;-72
2022/11/26 01:14:52;;;;;;;;;55.50;45.00;;;;;8.69;85.45;102524.50;4979016;28;45331;-72
2022/11/26 01:17:17;;;;;;;;;58.75;46.75;;;;;8.46;85.26;102482.47;4986345;28;45426;-72
2022/11/26 01:19:43;;;;;;;;;51.75;41.50;;;;;8.31;84.85;102465.91;4976719;28;46491;-71
2022/11/26 01:22:22;;;;;;;;;57.00;45.25;;;;;8.68;85.19;102530.78;4976884;28;45367;-71
2022/11/26 01:24:48;;;;;;;;;53.25;44.75;;;;;8.67;84.85;102529.00;4977148;28;45438;-72
2022/11/26 01:27:14;;;;;;;;;55.75;44.75;;;;;8.63;84.80;102533.53;4976913;28;45552;-71
2022/11/26 01:29:40;;;;;;;;;55.75;45.00;;;;;8.61;84.74;102522.06;4995081;28;47457;-72
2022/11/26 01:32:05;;;;;;;;;58.25;45.50;;;;;8.41;86.37;102493.22;4978909;28;45496;-72
2022/11/26 01:34:31;;;;;;;;;52.00;40.25;;;;;8.64;86.41;102532.63;4996266;28;45403;-71
2022/11/26 01:36:56;;;;;;;;;42.25;36.00;;;;;8.60;86.40;102509.66;4995893;28;45476;-72
2022/11/26 01:39:23;;;;;;;;;44.50;39.75;;;;;8.44;85.23;102487.81;4978625;28;48650;-72
2022/11/26 01:42:07;;;;;;;;;51.75;41.75;;;;;8.61;86.02;102530.03;4995941;28;45545;-73
2022/11/26 01:44:35;;;;;;;;;48.25;41.50;;;;;8.64;86.16;102526.41;4996117;28;45349;-72
2022/11/26 01:47:01;;;;;;;;;52.50;40.50;;;;;8.66;86.78;102521.94;4996054;28;45380;-72
2022/11/26 01:49:28;;;;;;;;;44.50;38.50;;;;;8.69;86.66;102521.84;4995940;28;45381;-72
2022/11/26 01:51:56;;;;;;;;;40.75;35.00;;;;;8.72;86.60;102530.66;4989314;28;45376;-73
2022/11/26 01:54:22;;;;;;;;;46.50;38.50;;;;;8.41;86.29;102477.25;4984866;28;45494;-73
2022/11/26 01:56:53;;;;;;;;;48.25;38.25;;;;;8.50;85.73;102505.44;4976812;28;45348;-72
2022/11/26 01:59:28;;;;;;;;;49.50;41.00;;;;;8.65;85.88;102537.03;4976426;28;45472;-72
2022/11/26 02:01:57;;;;;;;;;51.25;39.50;;;;;8.59;85.77;102519.41;4976653;28;45285;-73
2022/11/26 02:04:27;;;;;;;;;43.50;37.50;;;;;8.64;85.04;102531.72;4986625;28;45347;-72
2022/11/26 02:06:55;;;;;;;;;43.00;38.50;;;;;8.61;85.61;102529.13;4975859;28;45504;-72
2022/11/26 02:09:21;;;;;;;;;50.00;38.50;;;;;8.61;87.30;102524.72;4975665;28;46650;-72
2022/11/26 02:11:47;;;;;;;;;39.25;35.25;;;;;8.29;86.42;102478.41;4974807;28;46439;-72
2022/11/26 02:14:20;;;;;;;;;48.00;37.50;;;;;8.23;86.15;102446.59;4974968;28;45391;-72
2022/11/26 02:16:53;;;;;;;;;42.25;37.00;;;;;8.50;86.23;102494.81;4976593;28;45290;-72
2022/11/26 02:19:44;;;;;;;;;39.50;35.75;;;;;8.67;85.46;102526.34;4987120;28;45532;-72
2022/11/26 02:22:22;;;;;;;;;42.25;36.75;;;;;8.66;85.68;102519.28;4973602;28;45461;-72
2022/11/26 02:25:06;;;;;;;;;45.75;34.25;;;;;8.64;86.52;102515.75;4995929;28;45415;-72
2022/11/26 02:27:47;;;;;;;;;40.75;35.75;;;;;8.53;87.76;102497.38;4990651;28;45363;-72
2022/11/26 02:30:15;;;;;;;;;31.50;29.00;;;;;8.67;88.97;102516.56;4978607;28;46410;-72
2022/11/26 02:32:50;;;;;;;;;38.50;34.50;;;;;8.71;88.85;102509.41;4986430;28;45445;-72
2022/11/26 02:35:21;;;;;;;;;35.25;30.00;;;;;8.74;89.03;102518.16;4990521;28;45447;-72
2022/11/26 02:38:10;;;;;;;;;33.00;31.50;;;;;8.52;87.89;102488.53;4984026;28;45735;-72
2022/11/26 02:40:36;;;;;;;;;28.50;26.25;;;;;8.68;87.63;102507.69;4976921;28;45392;-72
2022/11/26 02:43:01;;;;;;;;;32.50;24.50;;;;;8.78;87.44;102524.31;4977004;28;45336;-72
2022/11/26 02:45:30;;;;;;;;;31.75;26.75;;;;;8.81;87.78;102528.69;4963254;28;45589;-73
2022/11/26 02:48:01;;;;;;;;;24.75;23.00;;;;;8.60;86.85;102496.34;4981980;28;45413;-71
2022/11/26 02:50:31;;;;;;;;;23.50;21.00;;;;;8.78;86.56;102526.97;4976291;28;46433;-71
2022/11/26 02:52:58;;;;;;;;;27.00;24.25;;;;;8.79;85.81;102535.84;4976627;28;45327;-72
2022/11/26 02:55:28;;;;;;;;;28.25;26.25;;;;;8.65;85.97;102512.19;4976953;28;45170;-72
2022/11/26 02:57:54;;;;;;;;;30.00;22.50;;;;;8.55;86.49;102503.56;4986706;28;45368;-72
2022/11/26 03:00:20;;;;;;;;;33.75;30.00;;;;;8.57;86.33;102515.91;4976368;28;45359;-72
2022/11/26 03:02:59;;;;;;;;;29.50;25.25;;;;;8.67;85.67;102529.88;4976731;28;45415;-73
2022/11/26 03:05:25;;;;;;;;;32.50;31.75;;;;;8.47;86.40;102495.75;4967585;28;45338;-73
2022/11/26 03:07:53;;;;;;;;;30.75;29.00;;;;;8.34;85.88;102471.19;4990933;28;45457;-73
2022/11/26 03:10:27;;;;;;;;;26.00;25.00;;;;;8.68;86.21;102528.13;4974145;28;45426;-72
2022/11/26 03:12:53;;;;;;;;;36.00;29.50;;;;;8.39;85.98;102474.63;4969670;28;45389;-79
2022/11/26 03:15:19;;;;;;;;;41.00;35.00;;;;;8.69;86.36;102520.09;4978274;28;44715;-79
2022/11/26 03:17:44;;;;;;;;;32.50;31.00;;;;;8.65;86.04;102518.41;4981729;28;45482;-79
2022/11/26 03:20:09;;;;;;;;;31.25;28.75;;;;;8.49;85.53;102488.63;4977352;28;45202;-78
2022/11/26 03:22:35;;;;;;;;;28.50;24.00;;;;;8.64;85.60;102527.28;4993024;28;44801;-78
2022/11/26 03:25:01;;;;;;;;;36.00;30.00;;;;;8.26;85.60;102473.16;4961927;28;45341;-78
2022/11/26 03:27:26;;;;;;;;;38.00;33.25;;;;;8.32;84.97;102491.63;4959547;28;45185;-79
2022/11/26 03:29:51;;;;;;;;;35.25;33.00;;;;;8.56;85.20;102534.56;4978121;28;45184;-79
2022/11/26 03:32:17;;;;;;;;;30.25;29.25;;;;;8.38;85.47;102506.56;4977455;28;45327;-79
2022/11/26 03:34:42;;;;;;;;;24.75;22.50;;;;;8.44;85.04;102529.50;4971674;28;45312;-78
2022/11/26 03:37:08;;;;;;;;;32.25;30.50;;;;;8.47;85.69;102527.66;4972424;28;45249;-78
2022/11/26 03:39:33;;;;;;;;;39.25;34.00;;;;;8.25;85.16;102487.34;4966250;28;46371;-79
2022/11/26 03:41:59;;;;;;;;;40.00;35.50;;;;;8.20;85.68;102470.63;4958266;28;45421;-78
2022/11/26 03:44:24;;;;;;;;;39.50;32.75;;;;;8.06;85.89;102447.00;4957606;28;45739;-79
2022/11/26 03:46:49;;;;;;;;;31.50;30.75;;;;;8.53;85.67;102523.97;4958597;28;44822;-79
2022/11/26 03:49:15;;;;;;;;;35.50;31.75;;;;;8.19;84.85;102477.72;4958462;28;46478;-80
2022/11/26 03:51:40;;;;;;;;;38.25;34.00;;;;;8.41;85.15;102525.13;4959261;28;44782;-79
2022/11/26 03:54:06;;;;;;;;;36.25;32.75;;;;;8.35;84.92;102520.78;4960185;28;45388;-79
2022/11/26 03:56:31;;;;;;;;;37.50;32.00;;;;;8.35;85.16;102525.25;4969561;28;45508;-79
2022/11/26 03:58:56;;;;;;;;;33.75;30.25;;;;;8.12;85.31;102472.56;4958133;28;45508;-79
2022/11/26 04:01:22;;;;;;;;;38.50;32.50;;;;;8.15;85.69;102480.47;4974452;28;45366;-79
2022/11/26 04:03:47;;;;;;;;;34.00;34.00;;;;;8.47;86.20;102529.47;4971669;28;45450;-79
2022/11/26 04:06:13;;;;;;;;;32.50;29.25;;;;;8.38;86.24;102520.75;4970217;28;45524;-78
2022/11/26 04:08:38;;;;;;;;;35.00;33.50;;;;;8.14;86.34;102479.59;4956481;28;45531;-78
2022/11/26 04:11:03;;;;;;;;;39.00;34.50;;;;;8.49;85.75;102538.25;4958746;28;45417;-77
2022/11/26 04:13:29;;;;;;;;;40.50;36.00;;;;;8.30;85.85;102506.75;4961045;28;45390;-78
2022/11/26 04:15:54;;;;;;;;;36.75;35.00;;;;;8.42;85.82;102537.47;4967880;28;45415;-79
2022/11/26 04:18:19;;;;;;;;;34.75;31.00;;;;;8.20;85.89;102495.41;4961389;28;45455;-79
2022/11/26 04:20:45;;;;;;;;;38.00;34.00;;;;;8.40;86.43;102540.19;4973390;28;44800;-79
2022/11/26 04:23:10;;;;;;;;;37.25;34.50;;;;;8.31;86.60;102503.16;4984880;28;45055;-78
2022/11/26 04:25:36;;;;;;;;;35.25;31.50;;;;;8.47;86.45;102524.13;4978480;28;45374;-78
2022/11/26 04:28:01;;;;;;;;;35.25;32.50;;;;;8.16;86.07;102471.59;4977459;28;45822;-78
2022/11/26 04:30:26;;;;;;;;;37.00;34.75;;;;;8.29;85.77;102488.13;4978064;28;45355;-79
2022/11/26 04:32:52;;;;;;;;;35.50;32.00;;;;;8.47;86.35;102513.50;4978431;28;45407;-78
2022/11/26 04:35:17;;;;;;;;;37.25;32.75;;;;;8.25;86.15;102480.22;4978155;28;45367;-77
2022/11/26 04:37:43;;;;;;;;;31.50;31.00;;;;;8.27;85.42;102477.53;4976570;28;47199;-77
2022/11/26 04:40:09;;;;;;;;;25.50;24.25;;;;;8.30;85.22;102496.09;4977896;28;45264;-77
2022/11/26 04:42:34;;;;;;;;;34.75;28.50;;;;;8.52;85.21;102538.22;4977466;28;45386;-78
2022/11/26 04:45:00;;;;;;;;;34.50;33.25;;;;;8.38;85.72;102520.75;4977622;28;45245;-78
2022/11/26 04:47:25;;;;;;;;;34.50;31.75;;;;;8.47;85.40;102550.75;4977822;28;46375;-77
2022/11/26 04:49:51;;;;;;;;;36.00;35.00;;;;;8.49;85.99;102535.59;4976462;28;45475;-77
2022/11/26 04:52:16;;;;;;;;;33.00;28.25;;;;;8.44;85.69;102521.53;4977762;28;45367;-75
2022/11/26 04:54:41;;;;;;;;;37.00;31.00;;;;;8.47;85.21;102540.09;4977688;28;45457;-76
2022/11/26 04:57:07;;;;;;;;;31.50;31.25;;;;;8.25;85.88;102503.31;4977160;28;45787;-76
2022/11/26 04:59:32;;;;;;;;;36.25;32.75;;;;;8.40;86.43;102518.91;4977135;28;45388;-76
2022/11/26 05:01:58;;;;;;;;;30.25;29.00;;;;;8.16;86.74;102483.09;4977805;28;45311;-75
2022/11/26 05:04:24;;;;;;;;;27.75;25.00;;;;;8.31;86.32;102513.78;4978728;28;45411;-77
2022/11/26 05:06:49;;;;;;;;;38.75;36.75;;;;;8.18;85.58;102489.25;4979102;28;48059;-76
2022/11/26 05:09:14;;;;;;;;;35.75;32.50;;;;;8.37;85.58;102532.28;4997014;28;45387;-76
2022/11/26 05:11:40;;;;;;;;;37.25;34.25;;;;;8.27;86.24;102527.19;4979134;28;45344;-77
2022/11/26 05:14:05;;;;;;;;;34.50;32.50;;;;;8.16;86.09;102522.09;4996879;28;45540;-76
2022/11/26 05:16:30;;;;;;;;;34.00;31.50;;;;;8.30;87.35;102541.31;4979002;28;48420;-76
2022/11/26 05:18:56;;;;;;;;;33.75;31.50;;;;;8.38;87.08;102547.34;4996963;28;45217;-75
2022/11/26 05:21:21;;;;;;;;;33.00;28.75;;;;;8.46;86.81;102565.81;4978384;28;45248;-76
2022/11/26 05:23:46;;;;;;;;;32.25;29.50;;;;;8.25;86.46;102530.75;4977300;28;45331;-77
2022/11/26 05:26:12;;;;;;;;;34.50;32.50;;;;;8.42;86.71;102559.66;4977082;28;45285;-75
2022/11/26 05:28:37;;;;;;;;;34.50;31.50;;;;;8.45;87.34;102561.41;4987203;28;45336;-76
2022/11/26 05:31:03;;;;;;;;;34.75;32.25;;;;;8.31;86.41;102528.88;4996843;28;45338;-75
2022/11/26 05:33:29;;;;;;;;;28.75;28.75;;;;;8.51;86.68;102560.41;4996943;28;45305;-75
2022/11/26 05:35:54;;;;;;;;;31.75;31.75;;;;;8.29;86.57;102530.69;4996512;28;46581;-74
2022/11/26 05:38:20;;;;;;;;;52.25;39.00;;;;;8.25;88.00;102535.22;4996615;28;45448;-74
2022/11/26 05:40:45;;;;;;;;;42.75;37.25;;;;;8.31;87.85;102547.50;4978791;28;45663;-76
2022/11/26 05:43:10;;;;;;;;;41.00;35.50;;;;;8.40;87.32;102566.78;4996591;28;45430;-74
2022/11/26 05:45:36;;;;;;;;;39.50;35.50;;;;;8.41;87.62;102568.53;4996599;28;46621;-75
2022/11/26 05:48:01;;;;;;;;;30.25;29.00;;;;;8.31;87.15;102553.66;4996199;28;45379;-75
2022/11/26 05:50:26;;;;;;;;;47.00;37.50;;;;;8.54;87.14;102597.56;4978823;28;45430;-75
2022/11/26 05:52:52;;;;;;;;;40.75;37.25;;;;;8.54;87.66;102585.16;4995199;28;45374;-75
2022/11/26 05:55:18;;;;;;;;;44.50;38.00;;;;;8.37;87.69;102556.22;4977815;28;46479;-74
2022/11/26 05:57:43;;;;;;;;;42.50;37.25;;;;;8.58;87.90;102601.91;4994539;28;45479;-75
2022/11/26 06:00:09;;;;;;;;;42.25;36.00;;;;;8.54;86.92;102589.59;4996296;28;45414;-75
2022/11/26 06:02:35;;;;;;;;;37.00;34.75;;;;;8.54;87.75;102589.59;4996084;28;45383;-74
2022/11/26 06:05:01;;;;;;;;;39.25;35.25;;;;;8.52;87.12;102586.09;4974592;28;45639;-75
2022/11/26 06:07:26;;;;;;;;;42.00;38.00;;;;;8.36;87.06;102558.91;4976193;28;45528;-75
2022/11/26 06:09:52;;;;;;;;;39.00;34.50;;;;;8.52;87.42;102597.59;4974913;28;45259;-74
2022/11/26 06:12:17;;;;;;;;;42.00;37.25;;;;;8.63;87.77;102607.16;4976636;28;45509;-74
2022/11/26 06:14:43;;;;;;;;;36.75;35.00;;;;;8.54;88.00;102594.91;4976134;28;46375;-76
2022/11/26 06:17:08;;;;;;;;;38.25;34.50;;;;;8.67;87.35;102623.00;4976486;28;45479;-75
2022/11/26 06:19:33;;;;;;;;;32.50;30.25;;;;;8.49;87.74;102587.03;4976108;28;45365;-75
2022/11/26 06:21:59;;;;;;;;;48.00;37.50;;;;;8.63;87.51;102608.00;4976446;28;45358;-75
2022/11/26 06:24:24;;;;;;;;;43.00;37.00;;;;;8.57;87.18;102589.50;4975836;28;45632;-75
2022/11/26 06:26:49;;;;;;;;;37.50;35.00;;;;;8.56;87.73;102585.13;4976395;28;45395;-76
2022/11/26 06:29:15;;;;;;;;;39.75;35.50;;;;;8.67;88.62;102609.69;4975753;28;45318;-75
2022/11/26 06:31:40;;;;;;;;;47.75;36.50;;;;;8.63;88.31;102594.72;4975578;28;45483;-74
2022/11/26 06:34:06;;;;;;;;;44.25;38.00;;;;;8.34;88.86;102548.31;4975440;28;46450;-74
2022/11/26 06:36:31;;;;;;;;;42.50;36.25;;;;;8.62;88.62;102582.31;4974665;28;45428;-75
2022/11/26 06:38:57;;;;;;;;;41.50;34.00;;;;;8.64;89.23;102580.50;4974391;28;45350;-74
2022/11/26 06:41:22;;;;;;;;;47.75;39.00;;;;;8.84;89.52;102619.09;4976075;28;45438;-74
2022/11/26 06:43:47;;;;;;;;;45.75;39.00;;;;;8.57;89.16;102584.19;4976111;28;45449;-74
2022/11/26 06:46:13;;;;;;;;;47.50;38.25;;;;;8.82;89.84;102629.78;4975900;28;45398;-73
2022/11/26 06:48:39;;;;;;;;;41.00;36.25;;;;;8.77;89.66;102622.81;4975599;28;45235;-73
2022/11/26 06:51:06;;;;;;;;;42.00;37.75;;;;;8.85;89.58;102648.31;4976110;28;45264;-74
2022/11/26 06:53:32;;;;;;;;;36.00;34.75;;;;;8.90;89.46;102654.44;4975523;28;45447;-76
2022/11/26 06:56:12;;;;;;;;;47.25;39.00;;;;;8.70;89.08;102606.97;4975681;28;45382;-77
2022/11/26 06:58:38;;;;;;;;;52.75;41.75;;;;;8.93;89.23;102629.53;4974220;28;45526;-75
2022/11/26 07:01:18;;;;;;;;;52.75;41.00;;;;;8.94;89.27;102631.28;4975430;28;45402;-76
2022/11/26 07:03:43;;;;;;;;;47.25;40.50;;;;;8.38;89.29;102535.81;4975711;28;45921;-77
2022/11/26 07:06:30;;;;;;;;;52.50;40.75;;;;;8.85;89.57;102619.06;4990200;28;45414;-77
2022/11/26 07:08:57;;;;;;;;;44.75;37.75;;;;;8.79;89.65;102599.72;4994026;28;45591;-73
2022/11/26 07:11:24;;;;;;;;;46.75;39.50;;;;;8.92;89.44;102628.66;4994812;28;45523;-76
2022/11/26 07:13:50;;;;;;;;;45.25;40.25;;;;;8.63;90.15;102581.41;4995298;28;46285;-76
2022/11/26 07:16:15;;;;;;;;;43.50;39.75;;;;;8.72;90.08;102591.00;4994876;28;45375;-77
2022/11/26 07:18:40;;;;;;;;;44.25;38.75;;;;;9.05;89.92;102644.38;4995182;28;45367;-76
2022/11/26 07:21:09;;;;;;;;;41.75;38.00;;;;;8.66;89.34;102593.78;4995113;28;45459;-76
2022/11/26 07:23:35;;;;;;;;;43.25;35.25;;;;;9.05;89.21;102663.88;4994253;28;47241;-76
2022/11/26 07:26:01;;;;;;;;;47.00;40.75;;;;;8.98;89.55;102638.31;4983337;28;45411;-76
2022/11/26 07:28:27;;;;;;;;;38.00;33.50;;;;;8.94;89.59;102631.28;4966005;28;45426;-76
2022/11/26 07:30:53;;;;;;;;;47.00;40.00;;;;;9.03;89.56;102652.38;4994774;28;45392;-77
2022/11/26 07:33:19;;;;;;;;;49.75;42.25;;;;;9.01;90.36;102648.00;4994575;28;46567;-77
2022/11/26 07:35:44;;;;;;;;;47.75;42.25;;;;;9.06;90.18;102636.34;4988372;28;45449;-77
2022/11/26 07:38:09;;;;;;;;;46.50;37.75;;;;;8.88;90.02;102602.16;4979417;28;45411;-76
2022/11/26 07:40:35;;;;;;;;;44.50;39.75;;;;;9.07;89.83;102631.91;4982614;28;45285;-77
2022/11/26 07:43:00;;;;;;;;;52.75;43.00;;;;;8.88;90.25;102595.06;4994882;28;45430;-76
2022/11/26 07:45:26;;;;;;;;;41.00;36.25;;;;;8.99;90.79;102607.22;4989144;28;45456;-77
2022/11/26 07:47:51;;;;;;;;;33.25;30.75;;;;;9.08;90.99;102607.00;4980198;28;45281;-76
2022/11/26 07:50:16;;;;;;;;;25.00;23.75;;;;;9.22;92.09;102630.69;4960965;28;45295;-76
2022/11/26 07:52:42;;;;;;;;;19.75;19.75;;;;;8.95;92.17;102577.16;4976568;28;45809;-75
2022/11/26 07:55:08;;;;;;;;;17.00;17.00;;;;;9.31;92.68;102624.25;4978230;28;45371;-75
2022/11/26 07:57:33;;;;;;;;;13.75;12.75;;;;;9.18;93.20;102605.03;4978360;28;45470;-76
2022/11/26 07:59:59;;;;;;;;;23.75;16.25;;;;;9.38;92.99;102617.84;4960765;28;45511;-75
2022/11/26 08:02:24;;;;;;;;;17.50;15.25;;;;;9.38;93.07;102613.41;4980780;28;45620;-76
2022/11/26 08:04:49;;;;;;;;;14.25;12.75;;;;;9.51;93.24;102632.63;4987120;28;45304;-76
2022/11/26 08:07:15;;;;;;;;;19.25;16.50;;;;;9.54;93.14;102644.97;4977978;28;45264;-75
2022/11/26 08:09:40;;;;;;;;;17.25;12.75;;;;;9.53;93.37;102644.13;4980752;28;45433;-76
2022/11/26 08:12:06;;;;;;;;;20.25;19.00;;;;;9.43;93.55;102614.19;4986120;28;46371;-76
2022/11/26 08:14:31;;;;;;;;;21.50;17.75;;;;;9.60;93.85;102640.38;4987824;28;45583;-76
2022/11/26 08:16:56;;;;;;;;;16.25;15.00;;;;;9.82;93.21;102663.81;4985487;28;45474;-76
2022/11/26 08:19:22;;;;;;;;;17.75;14.75;;;;;9.56;93.39;102613.88;4970058;28;45604;-76
2022/11/26 08:21:47;;;;;;;;;18.25;18.25;;;;;9.64;93.21;102616.34;4984444;28;45800;-76
2022/11/26 08:24:15;;;;;;;;;18.50;16.00;;;;;9.78;92.60;102638.16;4984465;28;45560;-74
2022/11/26 08:26:42;;;;;;;;;13.00;13.00;;;;;9.86;93.18;102644.16;4978987;28;45537;-75
2022/11/26 08:29:07;;;;;;;;;24.25;21.00;;;;;10.05;93.03;102673.03;4990898;28;45283;-75
2022/11/26 08:31:34;;;;;;;;;17.50;15.00;;;;;10.08;92.81;102671.16;4974852;28;45999;-76
2022/11/26 08:34:01;;;;;;;;;24.50;21.50;;;;;10.16;93.23;102664.72;4997374;28;45324;-76
2022/11/26 08:36:28;;;;;;;;;20.25;18.50;;;;;9.94;92.63;102609.31;4992377;28;45513;-76
2022/11/26 08:38:53;;;;;;;;;21.25;21.25;;;;;10.03;92.33;102617.06;4966663;28;45531;-76
2022/11/26 08:41:19;;;;;;;;;20.50;19.50;;;;;10.21;91.89;102633.47;4993298;28;45680;-76
2022/11/26 08:43:44;;;;;;;;;24.00;19.00;;;;;10.22;91.67;102613.91;4997321;28;45615;-76
2022/11/26 08:46:10;;;;;;;;;20.75;18.50;;;;;10.17;92.27;102599.81;4997587;28;45383;-76
2022/11/26 08:48:35;;;;;;;;;17.50;15.50;;;;;10.51;91.90;102641.56;4992936;28;45355;-76
2022/11/26 08:51:05;;;;;;;;;18.50;16.00;;;;;10.55;90.65;102645.91;4985803;28;46117;-77
2022/11/26 08:53:33;;;;;;;;;25.75;21.75;;;;;10.59;91.43;102660.91;4997545;28;45237;-76
2022/11/26 08:56:06;;;;;;;;;19.00;17.75;;;;;10.39;91.16;102616.09;4978519;28;45389;-75
2022/11/26 08:58:33;;;;;;;;;16.00;12.00;;;;;10.71;90.25;102662.34;4990282;28;45546;-75
2022/11/26 09:00:58;;;;;;;;;15.25;12.00;;;;;10.67;89.85;102648.19;4985648;28;46348;-76
2022/11/26 09:03:23;;;;;;;;;16.50;13.00;;;;;10.81;90.56;102665.59;4976817;28;45486;-75
2022/11/26 09:05:49;;;;;;;;;17.50;12.00;;;;;10.89;90.50;102666.25;4976754;28;45491;-75
2022/11/26 09:08:14;;;;;;;;;15.75;14.75;;;;;10.81;90.41;102634.47;4977552;28;45316;-76
2022/11/26 09:10:40;;;;;;;;;14.50;13.00;;;;;11.07;89.89;102665.69;4982930;28;46366;-76
2022/11/26 09:13:05;;;;;;;;;15.75;14.00;;;;;11.19;89.27;102656.44;4987451;28;45450;-75
2022/11/26 09:15:30;;;;;;;;;20.00;17.00;;;;;11.13;88.66;102645.94;4965722;28;45380;-75
2022/11/26 09:17:56;;;;;;;;;15.50;14.25;;;;;11.23;89.24;102651.88;4985097;28;45423;-75
2022/11/26 09:20:21;;;;;;;;;15.50;15.50;;;;;11.26;89.08;102651.78;4979732;28;46167;-77
2022/11/26 09:22:46;;;;;;;;;17.50;14.00;;;;;11.23;88.86;102635.84;4981759;28;45586;-75
2022/11/26 09:25:12;;;;;;;;;15.25;12.25;;;;;11.20;87.94;102627.91;4996174;28;45430;-75
2022/11/26 09:27:37;;;;;;;;;11.75;11.75;;;;;11.42;88.13;102655.69;4994702;28;45543;-74
2022/11/26 09:30:03;;;;;;;;;13.25;13.00;;;;;11.26;87.54;102625.91;4995066;28;45434;-76
2022/11/26 09:32:28;;;;;;;;;16.75;15.25;;;;;11.30;87.78;102629.38;4991803;28;45427;-76
2022/11/26 09:34:54;;;;;;;;;20.75;18.25;;;;;11.59;89.13;102667.63;4996598;28;45423;-75
2022/11/26 09:37:19;;;;;;;;;22.00;20.75;;;;;11.38;87.87;102621.13;4989983;28;45368;-75
2022/11/26 09:39:45;;;;;;;;;15.00;13.75;;;;;11.70;86.97;102653.91;4996283;28;46455;-75
2022/11/26 09:42:33;;;;;;;;;18.25;16.50;;;;;11.63;85.96;102628.31;4996432;28;45392;-76
2022/11/26 09:45:11;;;;;;;;;20.25;17.50;;;;;11.72;86.10;102634.22;4978164;28;45357;-75
2022/11/26 09:47:40;;;;;;;;;22.25;19.00;;;;;11.63;85.35;102613.13;4989199;28;45331;-74
2022/11/26 09:50:14;;;;;;;;;23.00;19.25;;;;;11.87;85.07;102653.34;4989278;28;47237;-74
2022/11/26 09:52:48;;;;;;;;;15.25;14.50;;;;;11.87;84.04;102640.84;4986623;28;45704;-75
2022/11/26 09:55:18;;;;;;;;;23.50;18.25;;;;;11.89;84.34;102635.44;4991767;28;45439;-77
2022/11/26 09:57:53;;;;;;;;;18.00;14.50;;;;;11.91;82.91;102634.44;4971876;28;45652;-76
2022/11/26 10:00:29;;;;;;;;;15.75;15.75;;;;;11.84;82.97;102632.94;4984758;28;45457;-75
2022/11/26 10:02:56;;;;;;;;;15.50;15.25;;;;;11.96;83.71;102642.38;4981056;28;45465;-76
2022/11/26 10:05:35;;;;;;;;;19.25;17.25;;;;;11.98;82.84;102637.81;4984421;28;45319;-77
2022/11/26 10:08:12;;;;;;;;;11.75;11.50;;;;;12.03;81.84;102629.66;4983153;28;45659;-76
2022/11/26 10:10:59;;;;;;;;;14.25;13.25;;;;;12.05;81.74;102639.38;4990530;28;45462;-76
2022/11/26 10:13:50;;;;;;;;;18.25;16.50;;;;;12.04;81.15;102628.69;4910793;28;45572;-72
2022/11/26 10:16:21;;;;;;;;;18.75;15.75;;;;;12.19;81.79;102635.31;4909749;28;45413;-71
2022/11/26 10:18:49;;;;;;;;;29.25;22.25;;;;;12.32;81.72;102639.28;4912600;28;45557;-72
2022/11/26 10:21:52;;;;;;;;;35.75;27.00;;;;;12.44;81.01;102621.91;4929081;28;45467;-77
2022/11/26 10:24:28;;;;;;;;;26.25;23.00;;;;;12.62;79.47;102639.09;4871459;29;45478;-73
2022/11/26 10:26:55;;;;;;;;;19.50;17.00;;;;;12.79;79.02;102633.06;4868899;29;45366;-73
2022/11/26 10:29:26;;;;;;;;;28.50;21.25;;;;;12.87;78.15;102614.03;4877435;29;45294;-73
2022/11/26 10:32:15;;;;;;;;;19.50;19.00;;;;;12.98;77.96;102622.50;4861202;29;45720;-74
2022/11/26 10:34:50;;;;;;;;;39.50;27.75;;;;;12.94;77.06;102595.00;4861976;29;45635;-72
2022/11/26 10:37:16;;;;;;;;;20.75;19.00;;;;;13.26;77.43;102616.06;4857349;29;45514;-73
2022/11/26 10:39:41;;;;;;;;;19.25;19.00;;;;;13.29;76.88;102600.72;4873962;29;45657;-72
2022/11/26 10:42:25;;;;;;;;;21.25;20.75;;;;;13.07;75.14;102592.69;4860994;29;47096;-72
2022/11/26 10:44:51;;;;;;;;;18.75;17.50;;;;;13.16;75.83;102601.28;4857173;29;45482;-72
2022/11/26 10:47:27;;;;;;;;;23.50;21.25;;;;;13.17;75.82;102614.59;4855922;29;45556;-72
2022/11/26 10:50:03;;;;;;;;;21.75;20.00;;;;;13.25;75.93;102611.63;4875114;28;45451;-72
2022/11/26 10:52:32;;;;;;;;;22.50;19.00;;;;;13.39;75.76;102611.97;4929558;28;45792;-73
2022/11/26 10:55:16;;;;;;;;;22.50;22.00;;;;;13.33;75.28;102601.44;4933601;28;45373;-72
2022/11/26 10:57:49;;;;;;;;;24.50;21.00;;;;;13.40;74.88;102612.81;4933968;28;45402;-73
2022/11/26 11:00:31;;;;;;;;;24.25;23.00;;;;;13.54;74.43;102625.69;4962352;28;45680;-73
2022/11/26 11:02:58;;;;;;;;;32.50;23.00;;;;;13.63;73.79;102606.50;4989520;28;46329;-73
2022/11/26 11:05:23;;;;;;;;;29.00;25.25;;;;;13.48;74.55;102583.88;4989208;28;45459;-73
2022/11/26 11:07:52;;;;;;;;;19.75;18.75;;;;;13.71;73.15;102619.56;4976410;28;45461;-74
2022/11/26 11:10:21;;;;;;;;;26.25;20.50;;;;;13.87;72.99;102627.84;4993593;28;45521;-74
2022/11/26 11:13:07;;;;;;;;;25.50;22.75;;;;;14.03;73.65;102628.91;4994785;28;45474;-72
2022/11/26 11:15:34;;;;;;;;;24.75;22.50;;;;;14.17;71.45;102624.75;4992833;28;46106;-73
2022/11/26 11:18:12;;;;;;;;;26.00;20.75;;;;;14.18;70.85;102610.38;4993888;28;45323;-74